Time;durP1;ratioP1;P1;durP2;ratioP2;P2;SDS_P1;SDS_P2;PMS_P1;PMS_P2;Temp;Humidity;BMP_temperature;BMP_pressure;BME280_temperature;BME280_humidity;BME280_pressure;Samples;Min_cycle;Max_cycle;Signal;HPM_P1;HPM_P2
2023/05/25 00:00:27;;;;;;;;;;;13.70;99.90;;;;;;7336221;19;110123;-67
2023/05/25 00:02:55;;;;;;;;;;;13.70;99.90;;;;;;7334551;19;109479;-67
2023/05/25 00:05:26;;;;;;;;;;;13.70;99.90;;;;;;7336902;19;110509;-67
2023/05/25 00:07:54;;;;;;;;;;;13.70;99.90;;;;;;7336775;19;111176;-68
2023/05/25 00:10:21;;;;;;;;;;;13.60;99.90;;;;;;7334555;19;109634;-66
2023/05/25 00:12:50;;;;;;;;;;;13.50;99.90;;;;;;7335609;19;111947;-67
2023/05/25 00:15:17;;;;;;;;;;;13.50;99.90;;;;;;7334981;19;109333;-66
2023/05/25 00:17:47;;;;;;;;;;;13.50;99.90;;;;;;7337864;19;111958;-66
2023/05/25 00:20:15;;;;;;;;;;;13.40;99.90;;;;;;7332168;19;110696;-67
2023/05/25 00:22:43;;;;;;;;;;;13.30;99.90;;;;;;7335963;19;110090;-66
2023/05/25 00:25:11;;;;;;;;;;;13.30;99.90;;;;;;7331467;19;111243;-67
2023/05/25 00:27:38;;;;;;;;;;;13.30;99.90;;;;;;7333054;19;110828;-67
2023/05/25 00:30:05;;;;;;;;;;;13.20;99.90;;;;;;7338129;19;110083;-67
2023/05/25 00:32:32;;;;;;;;;;;13.10;99.90;;;;;;7332457;19;111105;-67
2023/05/25 00:35:00;;;;;;;;;;;13.10;99.90;;;;;;7331098;19;109846;-68
2023/05/25 00:37:27;;;;;;;;;;;13.00;99.90;;;;;;7334882;19;109733;-66
2023/05/25 00:39:54;;;;;;;;;;;12.90;99.90;;;;;;7332607;19;110079;-66
2023/05/25 00:42:22;;;;;;;;;;;12.90;99.90;;;;;;7334149;19;109862;-67
2023/05/25 00:44:49;;;;;;;;;;;12.80;99.90;;;;;;7334567;19;110081;-67
2023/05/25 00:47:16;;;;;;;;;;;12.70;99.90;;;;;;7326655;19;110682;-66
2023/05/25 00:49:43;;;;;;;;;;;12.80;99.90;;;;;;7339353;19;111889;-68
2023/05/25 00:52:11;;;;;;;;;;;12.80;99.90;;;;;;7325970;19;111248;-66
2023/05/25 00:54:38;;;;;;;;;;;12.80;99.90;;;;;;7334452;19;110065;-67
2023/05/25 00:57:06;;;;;;;;;;;12.80;99.90;;;;;;7334055;19;109818;-66
2023/05/25 00:59:47;;;;;;;;;;;12.80;99.90;;;;;;7331433;19;110634;-66
2023/05/25 01:02:16;;;;;;;;;;;12.80;99.90;;;;;;7334555;19;111047;-66
2023/05/25 01:04:44;;;;;;;;;;;12.70;99.90;;;;;;7335366;19;111415;-66
2023/05/25 01:07:16;;;;;;;;;;;12.60;99.90;;;;;;7333647;19;110452;-66
2023/05/25 01:09:44;;;;;;;;;;;12.60;99.90;;;;;;7333246;19;109767;-66
2023/05/25 01:12:13;;;;;;;;;;;12.60;99.90;;;;;;7335783;19;111450;-67
2023/05/25 01:14:40;;;;;;;;;;;12.50;99.90;;;;;;7332242;19;110500;-66
2023/05/25 01:17:08;;;;;;;;;;;12.50;99.90;;;;;;7333708;19;111660;-67
2023/05/25 01:19:39;;;;;;;;;;;12.50;99.90;;;;;;7328630;19;110145;-67
2023/05/25 01:22:31;;;;;;;;;;;12.40;99.90;;;;;;7331611;19;111476;-66
2023/05/25 01:25:02;;;;;;;;;;;12.50;99.90;;;;;;7328402;19;111152;-67
2023/05/25 01:27:42;;;;;;;;;;;12.40;99.90;;;;;;7325295;19;110511;-67
2023/05/25 01:30:11;;;;;;;;;;;12.40;99.90;;;;;;7332756;19;111464;-66
2023/05/25 01:32:43;;;;;;;;;;;12.50;99.90;;;;;;7333277;19;121495;-67
2023/05/25 01:35:12;;;;;;;;;;;12.40;99.90;;;;;;7328188;19;110452;-66
2023/05/25 01:37:44;;;;;;;;;;;12.50;99.90;;;;;;7333821;19;110280;-67
2023/05/25 01:40:12;;;;;;;;;;;12.40;99.90;;;;;;7325381;19;110183;-67
2023/05/25 01:42:39;;;;;;;;;;;12.40;99.90;;;;;;7332791;19;110471;-66
2023/05/25 01:45:07;;;;;;;;;;;12.50;99.90;;;;;;7330290;19;109725;-67
2023/05/25 01:47:37;;;;;;;;;;;12.50;99.90;;;;;;7332647;19;111178;-68
2023/05/25 01:50:14;;;;;;;;;;;12.50;99.90;;;;;;7327588;19;115673;-67
2023/05/25 01:52:44;;;;;;;;;;;12.40;99.90;;;;;;7331315;19;110178;-66
2023/05/25 01:55:14;;;;;;;;;;;12.40;99.90;;;;;;7329701;19;111097;-66
2023/05/25 01:57:42;;;;;;;;;;;12.40;99.90;;;;;;7337301;19;110135;-66
2023/05/25 02:00:10;;;;;;;;;;;12.30;99.90;;;;;;7331155;19;110206;-67
2023/05/25 02:02:39;;;;;;;;;;;12.20;99.90;;;;;;7332075;19;110033;-67
2023/05/25 02:05:07;;;;;;;;;;;12.10;99.90;;;;;;7337677;19;109723;-71
2023/05/25 02:07:35;;;;;;;;;;;12.10;99.90;;;;;;7341341;19;111253;-73
2023/05/25 02:10:02;;;;;;;;;;;12.00;99.90;;;;;;7341158;19;109577;-75
2023/05/25 02:12:29;;;;;;;;;;;12.10;99.90;;;;;;7336151;19;112256;-72
2023/05/25 02:14:57;;;;;;;;;;;12.10;99.90;;;;;;7338346;19;110464;-67
2023/05/25 02:17:26;;;;;;;;;;;12.20;99.90;;;;;;7339902;19;109651;-68
2023/05/25 02:19:53;;;;;;;;;;;12.10;99.90;;;;;;7340982;19;110507;-67
2023/05/25 02:22:21;;;;;;;;;;;12.00;99.90;;;;;;7340309;19;110603;-66
2023/05/25 02:24:48;;;;;;;;;;;12.00;99.90;;;;;;7340765;19;111744;-67
2023/05/25 02:27:15;;;;;;;;;;;11.90;99.90;;;;;;7336723;19;111225;-66
2023/05/25 02:29:42;;;;;;;;;;;11.80;99.90;;;;;;7337005;19;109967;-67
2023/05/25 02:32:10;;;;;;;;;;;11.70;99.90;;;;;;7339813;19;109742;-66
2023/05/25 02:34:37;;;;;;;;;;;11.60;99.90;;;;;;7338341;19;110404;-66
2023/05/25 02:37:04;;;;;;;;;;;11.60;99.90;;;;;;7338910;19;109996;-66
2023/05/25 02:39:30;;;;;;;;;;;11.60;99.90;;;;;;7342344;19;110279;-66
2023/05/25 02:41:57;;;;;;;;;;;11.60;99.90;;;;;;7338204;19;110336;-66
2023/05/25 02:44:25;;;;;;;;;;;11.50;99.90;;;;;;7334580;19;110858;-66
2023/05/25 02:46:52;;;;;;;;;;;11.50;99.90;;;;;;7338664;19;110121;-66
2023/05/25 02:49:19;;;;;;;;;;;11.50;99.90;;;;;;7334787;19;109895;-67
2023/05/25 02:51:46;;;;;;;;;;;11.50;99.90;;;;;;7337240;19;109775;-66
2023/05/25 02:54:13;;;;;;;;;;;11.50;99.90;;;;;;7338260;19;111632;-66
2023/05/25 02:56:41;;;;;;;;;;;11.50;99.90;;;;;;7338074;19;110312;-66
2023/05/25 02:59:08;;;;;;;;;;;11.50;99.90;;;;;;7333512;19;112070;-66
2023/05/25 03:01:35;;;;;;;;;;;11.50;99.90;;;;;;7341014;19;110585;-66
2023/05/25 03:04:02;;;;;;;;;;;11.50;99.90;;;;;;7339886;19;110646;-66
2023/05/25 03:06:29;;;;;;;;;;;11.50;99.90;;;;;;7339008;19;111108;-66
2023/05/25 03:08:56;;;;;;;;;;;11.50;99.90;;;;;;7337627;19;110289;-67
2023/05/25 03:11:23;;;;;;;;;;;11.50;99.90;;;;;;7335629;19;109641;-66
2023/05/25 03:13:50;;;;;;;;;;;11.60;99.90;;;;;;7336283;19;112409;-66
2023/05/25 03:16:17;;;;;;;;;;;11.60;99.90;;;;;;7336256;19;109566;-67
2023/05/25 03:18:45;;;;;;;;;;;11.60;99.90;;;;;;7337816;19;112064;-66
2023/05/25 03:21:12;;;;;;;;;;;11.60;99.90;;;;;;7337368;19;110109;-67
2023/05/25 03:23:39;;;;;;;;;;;11.50;99.90;;;;;;7341564;19;109722;-66
2023/05/25 03:26:06;;;;;;;;;;;11.40;99.90;;;;;;7336883;19;110153;-66
2023/05/25 03:28:33;;;;;;;;;;;11.40;99.90;;;;;;7338559;19;109767;-67
2023/05/25 03:31:00;;;;;;;;;;;11.30;99.90;;;;;;7335866;19;111083;-67
2023/05/25 03:33:27;;;;;;;;;;;11.20;99.90;;;;;;7333494;19;112516;-67
2023/05/25 03:35:54;;;;;;;;;;;11.20;99.90;;;;;;7334742;19;111338;-67
2023/05/25 03:38:22;;;;;;;;;;;11.20;99.90;;;;;;7335412;19;111335;-67
2023/05/25 03:40:49;;;;;;;;;;;11.20;99.90;;;;;;7335829;19;111318;-67
2023/05/25 03:43:16;;;;;;;;;;;11.20;99.90;;;;;;7333620;19;109653;-67
2023/05/25 03:45:43;;;;;;;;;;;11.10;99.90;;;;;;7339524;19;111868;-67
2023/05/25 03:48:10;;;;;;;;;;;11.00;99.90;;;;;;7336691;19;109844;-67
2023/05/25 03:50:39;;;;;;;;;;;11.00;99.90;;;;;;7339027;19;109685;-67
2023/05/25 03:53:07;;;;;;;;;;;11.00;99.90;;;;;;7333385;19;110207;-67
2023/05/25 03:55:34;;;;;;;;;;;11.00;99.90;;;;;;7333102;19;109385;-67
2023/05/25 03:58:01;;;;;;;;;;;11.00;99.90;;;;;;7335897;19;110029;-66
2023/05/25 04:00:28;;;;;;;;;;;11.00;99.90;;;;;;7333121;19;110963;-67
2023/05/25 04:02:55;;;;;;;;;;;11.00;99.90;;;;;;7335471;19;110141;-67
2023/05/25 04:05:23;;;;;;;;;;;11.00;99.90;;;;;;7332386;19;111698;-67
2023/05/25 04:07:51;;;;;;;;;;;11.00;99.90;;;;;;7338386;19;110107;-67
2023/05/25 04:10:18;;;;;;;;;;;11.00;99.90;;;;;;7333963;19;109673;-67
2023/05/25 04:12:45;;;;;;;;;;;11.00;99.90;;;;;;7333058;19;111205;-67
2023/05/25 04:15:13;;;;;;;;;;;11.00;99.90;;;;;;7334452;19;109475;-67
2023/05/25 04:17:40;;;;;;;;;;;11.10;99.90;;;;;;7332004;19;109693;-67
2023/05/25 04:20:08;;;;;;;;;;;11.10;99.90;;;;;;7331976;19;110415;-67
2023/05/25 04:22:37;;;;;;;;;;;11.10;99.90;;;;;;7332987;19;109516;-67
2023/05/25 04:25:05;;;;;;;;;;;11.10;99.90;;;;;;7333885;19;111166;-67
2023/05/25 04:27:32;;;;;;;;;;;11.10;99.90;;;;;;7333799;19;111423;-67
2023/05/25 04:29:59;;;;;;;;;;;11.10;99.90;;;;;;7339769;19;110556;-67
2023/05/25 04:32:28;;;;;;;;;;;11.10;99.90;;;;;;7335512;19;110879;-67
2023/05/25 04:34:55;;;;;;;;;;;11.10;99.90;;;;;;7334313;19;109793;-67
2023/05/25 04:37:26;;;;;;;;;;;11.20;99.90;;;;;;7334208;19;109708;-68
2023/05/25 04:39:53;;;;;;;;;;;11.20;99.90;;;;;;7332779;19;110339;-67
2023/05/25 04:42:22;;;;;;;;;;;11.20;99.90;;;;;;7333942;19;109816;-67
2023/05/25 04:44:57;;;;;;;;;;;11.20;99.90;;;;;;7334013;19;109490;-67
2023/05/25 04:47:24;;;;;;;;;;;11.20;99.90;;;;;;7332502;19;115309;-67
2023/05/25 04:49:52;;;;;;;;;;;11.20;99.90;;;;;;7339314;19;112906;-67
2023/05/25 04:52:19;;;;;;;;;;;11.20;99.90;;;;;;7329021;19;113028;-68
2023/05/25 04:54:47;;;;;;;;;;;11.20;99.90;;;;;;7334211;19;110241;-67
2023/05/25 04:57:14;;;;;;;;;;;11.20;99.90;;;;;;7331194;19;114037;-67
2023/05/25 04:59:41;;;;;;;;;;;11.30;99.90;;;;;;7334093;19;110090;-67
2023/05/25 05:02:07;;;;;;;;;;;11.30;99.90;;;;;;7331575;19;109488;-67
2023/05/25 05:04:36;;;;;;;;;;;11.30;99.90;;;;;;7335217;19;109972;-67
2023/05/25 05:07:03;;;;;;;;;;;11.30;99.90;;;;;;7329587;19;109354;-67
2023/05/25 05:09:30;;;;;;;;;;;11.30;99.90;;;;;;7330400;19;110164;-67
2023/05/25 05:11:57;;;;;;;;;;;11.30;99.90;;;;;;7336049;19;110574;-67
2023/05/25 05:14:24;;;;;;;;;;;11.40;99.90;;;;;;7326869;19;110662;-67
2023/05/25 05:16:51;;;;;;;;;;;11.50;99.90;;;;;;7330264;19;110529;-67
2023/05/25 05:19:18;;;;;;;;;;;11.50;99.90;;;;;;7331532;19;111308;-67
2023/05/25 05:21:45;;;;;;;;;;;11.50;99.90;;;;;;7335395;19;109513;-69
2023/05/25 05:24:12;;;;;;;;;;;11.50;99.90;;;;;;7331255;19;111866;-67
2023/05/25 05:26:40;;;;;;;;;;;11.60;99.90;;;;;;7333778;19;110963;-67
2023/05/25 05:29:23;;;;;;;;;;;11.60;99.90;;;;;;7332060;19;109762;-67
2023/05/25 05:31:50;;;;;;;;;;;11.70;99.90;;;;;;7335237;19;110790;-67
2023/05/25 05:34:17;;;;;;;;;;;11.80;99.90;;;;;;7336747;19;110669;-68
2023/05/25 05:36:44;;;;;;;;;;;11.80;99.90;;;;;;7334039;19;115085;-67
2023/05/25 05:39:24;;;;;;;;;;;11.90;99.90;;;;;;7328581;19;111589;-67
2023/05/25 05:41:51;;;;;;;;;;;12.00;99.90;;;;;;7332392;19;109788;-68
2023/05/25 05:44:19;;;;;;;;;;;12.00;99.90;;;;;;7331005;19;110456;-68
2023/05/25 05:46:47;;;;;;;;;;;12.10;99.90;;;;;;7333366;19;111689;-67
2023/05/25 05:49:14;;;;;;;;;;;12.20;99.90;;;;;;7331129;19;110635;-67
2023/05/25 05:51:41;;;;;;;;;;;12.30;99.90;;;;;;7331298;19;111894;-67
2023/05/25 05:54:08;;;;;;;;;;;12.30;99.90;;;;;;7333449;19;111027;-68
2023/05/25 05:56:36;;;;;;;;;;;12.40;99.90;;;;;;7337666;19;109834;-68
2023/05/25 05:59:03;;;;;;;;;;;12.50;99.90;;;;;;7330356;19;110987;-71
2023/05/25 06:01:30;;;;;;;;;;;12.60;99.90;;;;;;7329035;19;110296;-66
2023/05/25 06:03:57;;;;;;;;;;;12.70;99.90;;;;;;7330577;19;110943;-67
2023/05/25 06:06:24;;;;;;;;;;;12.80;99.90;;;;;;7327992;19;110793;-66
2023/05/25 06:08:52;;;;;;;;;;;12.90;99.90;;;;;;7330860;19;109919;-69
2023/05/25 06:11:19;;;;;;;;;;;12.90;99.90;;;;;;7330981;19;110784;-66
2023/05/25 06:13:49;;;;;;;;;;;13.00;99.90;;;;;;7329932;19;112086;-67
2023/05/25 06:16:16;;;;;;;;;;;13.00;99.90;;;;;;7326942;19;110780;-67
2023/05/25 06:18:43;;;;;;;;;;;13.10;99.90;;;;;;7339099;19;109951;-67
2023/05/25 06:21:10;;;;;;;;;;;13.10;99.90;;;;;;7330071;19;111181;-72
2023/05/25 06:23:38;;;;;;;;;;;13.00;99.90;;;;;;7333663;19;110843;-68
2023/05/25 06:26:05;;;;;;;;;;;13.10;99.90;;;;;;7329388;19;112181;-67
2023/05/25 06:28:32;;;;;;;;;;;13.20;99.90;;;;;;7330622;19;110277;-67
2023/05/25 06:30:59;;;;;;;;;;;13.30;99.90;;;;;;7331375;19;111595;-67
2023/05/25 06:33:26;;;;;;;;;;;13.50;99.90;;;;;;7327660;19;110445;-66
2023/05/25 06:35:59;;;;;;;;;;;13.70;99.90;;;;;;7332469;19;109714;-71
2023/05/25 06:38:27;;;;;;;;;;;13.80;99.90;;;;;;7328556;19;110216;-67
2023/05/25 06:40:54;;;;;;;;;;;13.90;99.90;;;;;;7337265;19;111185;-67
2023/05/25 06:43:21;;;;;;;;;;;13.90;99.90;;;;;;7331475;19;110057;-69
2023/05/25 06:45:49;;;;;;;;;;;14.00;99.90;;;;;;7327925;19;110999;-68
2023/05/25 06:48:16;;;;;;;;;;;14.00;99.90;;;;;;7332191;19;109523;-67
2023/05/25 06:50:44;;;;;;;;;;;14.10;99.90;;;;;;7334122;19;110478;-67
2023/05/25 06:53:13;;;;;;;;;;;14.10;99.90;;;;;;7336253;19;110425;-67
2023/05/25 06:55:40;;;;;;;;;;;14.10;99.90;;;;;;7337414;19;109771;-67
2023/05/25 06:58:07;;;;;;;;;;;14.20;99.90;;;;;;7338946;19;109775;-68
2023/05/25 07:00:36;;;;;;;;;;;14.30;99.90;;;;;;7346369;19;110249;-67
2023/05/25 07:03:03;;;;;;;;;;;14.40;99.90;;;;;;7342795;19;110339;-67
2023/05/25 07:05:30;;;;;;;;;;;14.50;99.90;;;;;;7341312;19;110690;-69
2023/05/25 07:07:57;;;;;;;;;;;14.60;99.90;;;;;;7333689;19;109873;-67
2023/05/25 07:10:25;;;;;;;;;;;14.70;99.90;;;;;;7339240;19;111798;-68
2023/05/25 07:12:52;;;;;;;;;;;14.80;99.90;;;;;;7335337;19;110970;-74
2023/05/25 07:15:20;;;;;;;;;;;14.80;99.90;;;;;;7340322;19;109506;-72
2023/05/25 07:17:47;;;;;;;;;;;14.80;99.90;;;;;;7337145;19;110321;-70
2023/05/25 07:20:14;;;;;;;;;;;14.90;99.90;;;;;;7338678;19;110214;-74
2023/05/25 07:22:42;;;;;;;;;;;14.90;99.90;;;;;;7342493;19;109669;-74
2023/05/25 07:25:09;;;;;;;;;;;15.00;99.90;;;;;;7337548;19;111200;-69
2023/05/25 07:27:36;;;;;;;;;;;15.00;99.90;;;;;;7336005;19;110182;-68
2023/05/25 07:30:05;;;;;;;;;;;15.00;99.90;;;;;;7337249;19;111377;-67
2023/05/25 07:32:32;;;;;;;;;;;15.20;99.90;;;;;;7337131;19;110214;-68
2023/05/25 07:35:00;;;;;;;;;;;15.30;99.90;;;;;;7332913;19;110261;-71
2023/05/25 07:37:27;;;;;;;;;;;15.30;99.90;;;;;;7337523;19;109686;-67
2023/05/25 07:39:54;;;;;;;;;;;15.40;99.90;;;;;;7334164;19;110566;-68
2023/05/25 07:42:21;;;;;;;;;;;15.50;99.90;;;;;;7336818;19;109942;-67
2023/05/25 07:44:48;;;;;;;;;;;15.60;99.90;;;;;;7339479;19;110010;-67
2023/05/25 07:47:15;;;;;;;;;;;15.70;99.90;;;;;;7335144;19;109467;-68
2023/05/25 07:49:42;;;;;;;;;;;15.80;99.90;;;;;;7335555;19;111264;-67
2023/05/25 07:52:10;;;;;;;;;;;15.80;99.90;;;;;;7328753;19;111496;-69
2023/05/25 07:54:38;;;;;;;;;;;15.90;99.90;;;;;;7336410;19;109766;-67
2023/05/25 07:57:06;;;;;;;;;;;15.90;99.90;;;;;;7335455;19;111613;-68
2023/05/25 07:59:34;;;;;;;;;;;15.90;99.90;;;;;;7335869;19;110791;-67
2023/05/25 08:02:01;;;;;;;;;;;16.00;99.90;;;;;;7334448;19;110049;-68
2023/05/25 08:04:32;;;;;;;;;;;16.00;99.90;;;;;;7335477;19;110320;-67
2023/05/25 08:07:00;;;;;;;;;;;16.00;99.90;;;;;;7340834;19;111188;-67
2023/05/25 08:09:27;;;;;;;;;;;16.10;99.90;;;;;;7335813;19;109576;-67
2023/05/25 08:11:54;;;;;;;;;;;16.10;99.90;;;;;;7335206;19;110738;-68
2023/05/25 08:14:38;;;;;;;;;;;16.20;99.90;;;;;;7334361;19;109399;-67
2023/05/25 08:17:06;;;;;;;;;;;16.20;99.90;;;;;;7333837;19;109249;-67
2023/05/25 08:19:33;;;;;;;;;;;16.30;99.90;;;;;;7333554;19;111450;-68
2023/05/25 08:22:00;;;;;;;;;;;16.40;99.90;;;;;;7332559;19;109947;-67
2023/05/25 08:24:27;;;;;;;;;;;16.40;99.90;;;;;;7334992;19;110970;-67
2023/05/25 08:26:54;;;;;;;;;;;16.50;99.90;;;;;;7333236;19;114950;-68
2023/05/25 08:29:21;;;;;;;;;;;16.50;99.90;;;;;;7339432;19;109984;-67
2023/05/25 08:31:49;;;;;;;;;;;16.50;99.90;;;;;;7332695;19;111469;-67
2023/05/25 08:34:16;;;;;;;;;;;16.60;99.90;;;;;;7333691;19;112466;-67
2023/05/25 08:36:43;;;;;;;;;;;16.70;99.90;;;;;;7333667;19;109715;-67
2023/05/25 08:39:10;;;;;;;;;;;16.70;99.90;;;;;;7333173;19;110123;-67
2023/05/25 08:41:42;;;;;;;;;;;16.70;99.90;;;;;;7331655;19;110011;-68
2023/05/25 08:44:10;;;;;;;;;;;16.90;99.90;;;;;;7334775;19;112912;-68
2023/05/25 08:46:37;;;;;;;;;;;17.00;99.90;;;;;;7332919;19;110140;-67
2023/05/25 08:49:07;;;;;;;;;;;17.10;99.90;;;;;;7330174;19;109654;-68
2023/05/25 08:51:36;;;;;;;;;;;17.10;99.90;;;;;;7339313;19;111147;-67
2023/05/25 08:54:11;;;;;;;;;;;17.30;99.90;;;;;;7333014;19;109750;-67
2023/05/25 08:56:48;;;;;;;;;;;17.40;99.90;;;;;;7333309;19;111301;-67
2023/05/25 08:59:24;;;;;;;;;;;17.50;99.90;;;;;;7334534;19;110494;-67
2023/05/25 09:01:55;;;;;;;;;;;17.60;99.90;;;;;;7332525;19;111907;-67
2023/05/25 09:04:22;;;;;;;;;;;17.60;99.90;;;;;;7332289;19;109343;-67
2023/05/25 09:06:50;;;;;;;;;;;17.70;99.90;;;;;;7333631;19;111453;-67
2023/05/25 09:09:36;;;;;;;;;;;17.60;99.90;;;;;;7335174;19;112078;-68
2023/05/25 09:12:03;;;;;;;;;;;17.40;99.90;;;;;;7335859;19;109842;-68
2023/05/25 09:14:32;;;;;;;;;;;17.40;99.90;;;;;;7331665;19;109813;-68
2023/05/25 09:16:59;;;;;;;;;;;17.40;99.90;;;;;;7333364;19;109805;-67
2023/05/25 09:19:26;;;;;;;;;;;17.50;99.90;;;;;;7333395;19;111483;-67
2023/05/25 09:21:54;;;;;;;;;;;17.60;99.90;;;;;;7334873;19;109756;-66
2023/05/25 09:24:33;;;;;;;;;;;17.60;99.90;;;;;;7332734;19;111574;-68
2023/05/25 09:27:02;;;;;;;;;;;17.80;99.90;;;;;;7330041;19;110210;-67
2023/05/25 09:29:31;;;;;;;;;;;17.90;99.90;;;;;;7333932;19;110060;-66
2023/05/25 09:31:59;;;;;;;;;;;17.90;99.90;;;;;;7330873;19;111908;-67
2023/05/25 09:34:30;;;;;;;;;;;17.90;99.90;;;;;;7336107;19;109867;-65
2023/05/25 09:36:57;;;;;;;;;;;17.90;99.90;;;;;;7334230;19;109548;-70
2023/05/25 09:39:25;;;;;;;;;;;17.90;99.90;;;;;;7330703;19;115323;-67
2023/05/25 09:41:52;;;;;;;;;;;18.00;99.90;;;;;;7331442;19;109602;-68
2023/05/25 09:44:20;;;;;;;;;;;18.00;99.90;;;;;;7333725;19;109419;-68
2023/05/25 09:46:47;;;;;;;;;;;18.10;99.90;;;;;;7330285;19;110191;-67
2023/05/25 09:49:14;;;;;;;;;;;18.10;99.90;;;;;;7331892;19;111453;-67
2023/05/25 09:51:41;;;;;;;;;;;18.10;99.90;;;;;;7332081;19;109821;-67
2023/05/25 09:54:09;;;;;;;;;;;18.10;99.90;;;;;;7331461;19;112742;-67
2023/05/25 09:56:36;;;;;;;;;;;18.10;99.90;;;;;;7335763;19;110343;-68
2023/05/25 09:59:03;;;;;;;;;;;18.20;99.90;;;;;;7331400;19;111013;-68
2023/05/25 10:01:31;;;;;;;;;;;18.20;99.90;;;;;;7330545;19;110294;-67
2023/05/25 10:04:00;;;;;;;;;;;18.20;99.90;;;;;;7331972;19;109462;-67
2023/05/25 10:06:32;;;;;;;;;;;18.20;99.90;;;;;;7327560;19;110552;-67
2023/05/25 10:09:00;;;;;;;;;;;18.20;99.90;;;;;;7332184;19;110354;-68
2023/05/25 10:11:28;;;;;;;;;;;18.10;99.90;;;;;;7330754;19;110896;-67
2023/05/25 10:13:55;;;;;;;;;;;18.10;99.90;;;;;;7328200;19;111263;-65
2023/05/25 10:16:25;;;;;;;;;;;18.10;99.90;;;;;;7330215;19;109466;-66
2023/05/25 10:19:13;;;;;;;;;;;18.10;99.90;;;;;;7336580;19;109418;-66
2023/05/25 10:21:41;;;;;;;;;;;18.20;99.90;;;;;;7333562;19;109703;-66
2023/05/25 10:24:13;;;;;;;;;;;18.40;99.90;;;;;;7333153;19;110585;-66
2023/05/25 10:26:44;;;;;;;;;;;18.50;99.90;;;;;;7338448;19;110928;-66
2023/05/25 10:29:12;;;;;;;;;;;18.50;99.90;;;;;;7338561;19;109832;-66
2023/05/25 10:31:39;;;;;;;;;;;18.50;99.90;;;;;;7340819;19;110545;-66
2023/05/25 10:34:07;;;;;;;;;;;18.40;99.90;;;;;;7338032;19;110671;-65
2023/05/25 10:36:36;;;;;;;;;;;18.50;99.90;;;;;;7338466;19;109469;-66
2023/05/25 10:39:06;;;;;;;;;;;18.50;99.90;;;;;;7335434;19;110704;-66
2023/05/25 10:41:34;;;;;;;;;;;18.60;99.90;;;;;;7344620;19;114982;-65
2023/05/25 10:44:02;;;;;;;;;;;18.50;99.90;;;;;;7337869;19;109501;-66
2023/05/25 10:46:29;;;;;;;;;;;18.60;99.90;;;;;;7326623;19;111197;-65
2023/05/25 10:49:01;;;;;;;;;;;18.70;99.90;;;;;;7336739;19;109781;-66
2023/05/25 10:51:38;;;;;;;;;;;18.70;99.90;;;;;;7337966;19;110169;-65
2023/05/25 10:54:05;;;;;;;;;;;18.80;99.90;;;;;;7333867;19;111931;-64
2023/05/25 10:56:32;;;;;;;;;;;18.90;99.90;;;;;;7335975;19;110814;-64
2023/05/25 10:59:00;;;;;;;;;;;18.80;99.90;;;;;;7334229;19;114447;-64
2023/05/25 11:01:29;;;;;;;;;;;18.90;99.90;;;;;;7338022;19;109823;-64
2023/05/25 11:04:14;;;;;;;;;;;19.00;99.90;;;;;;7343430;19;111317;-63
2023/05/25 11:06:44;;;;;;;;;;;19.00;99.90;;;;;;7338631;19;111194;-64
2023/05/25 11:09:24;;;;;;;;;;;18.90;99.90;;;;;;7335577;19;109864;-64
2023/05/25 11:11:54;;;;;;;;;;;19.10;99.90;;;;;;7338710;19;109540;-64
2023/05/25 11:14:31;;;;;;;;;;;19.30;99.90;;;;;;7330975;19;113354;-64
2023/05/25 11:17:13;;;;;;;;;;;19.40;99.90;;;;;;7337160;19;110386;-62
2023/05/25 11:19:48;;;;;;;;;;;19.30;99.90;;;;;;7332586;19;111448;-63
2023/05/25 11:22:36;;;;;;;;;;;19.40;99.90;;;;;;7333971;19;110406;-62
2023/05/25 11:25:23;;;;;;;;;;;19.40;99.90;;;;;;7338181;19;110006;-63
2023/05/25 11:27:53;;;;;;;;;;;19.30;99.90;;;;;;7335334;19;112820;-62
2023/05/25 11:30:26;;;;;;;;;;;19.40;99.90;;;;;;7334772;19;111347;-63
2023/05/25 11:32:53;;;;;;;;;;;19.50;99.90;;;;;;7334711;19;110030;-63
2023/05/25 11:35:20;;;;;;;;;;;19.60;99.90;;;;;;7334021;19;110008;-63
2023/05/25 11:37:52;;;;;;;;;;;19.60;99.90;;;;;;7335190;19;110611;-62
2023/05/25 11:40:22;;;;;;;;;;;19.80;99.90;;;;;;7333920;19;110049;-63
2023/05/25 11:42:51;;;;;;;;;;;19.60;99.90;;;;;;7335181;19;110742;-62
2023/05/25 11:45:20;;;;;;;;;;;19.50;99.90;;;;;;7333225;19;111142;-62
2023/05/25 11:47:47;;;;;;;;;;;19.60;99.90;;;;;;7341633;19;109914;-62
2023/05/25 11:50:16;;;;;;;;;;;19.40;99.90;;;;;;7335645;19;109555;-63
2023/05/25 11:52:43;;;;;;;;;;;19.30;99.90;;;;;;7334694;19;109822;-63
2023/05/25 11:55:13;;;;;;;;;;;19.20;99.90;;;;;;7332428;19;110821;-62
2023/05/25 11:57:40;;;;;;;;;;;19.00;99.90;;;;;;7338094;19;110139;-63
2023/05/25 12:00:10;;;;;;;;;;;19.00;99.90;;;;;;7334478;19;110902;-63
2023/05/25 12:02:37;;;;;;;;;;;19.10;99.90;;;;;;7335541;19;110754;-62
2023/05/25 12:05:08;;;;;;;;;;;19.10;99.90;;;;;;7335472;19;110468;-63
2023/05/25 12:07:41;;;;;;;;;;;19.30;99.90;;;;;;7332770;19;112385;-63
2023/05/25 12:10:12;;;;;;;;;;;19.20;99.90;;;;;;7340103;19;110776;-62
2023/05/25 12:12:43;;;;;;;;;;;19.20;99.90;;;;;;7334960;19;109279;-62
2023/05/25 12:15:11;;;;;;;;;;;19.20;99.90;;;;;;7334950;19;111212;-62
2023/05/25 12:17:42;;;;;;;;;;;19.10;99.90;;;;;;7335273;19;109768;-63
2023/05/25 12:20:10;;;;;;;;;;;19.20;99.90;;;;;;7335439;19;113035;-63
2023/05/25 12:22:38;;;;;;;;;;;19.30;99.90;;;;;;7333049;19;110107;-63
2023/05/25 12:25:06;;;;;;;;;;;19.40;99.90;;;;;;7335468;19;109769;-64
2023/05/25 12:27:33;;;;;;;;;;;19.40;99.90;;;;;;7335312;19;109888;-63
2023/05/25 12:30:01;;;;;;;;;;;19.50;99.90;;;;;;7334209;19;110383;-63
2023/05/25 12:32:28;;;;;;;;;;;19.60;99.90;;;;;;7340095;19;110411;-63
2023/05/25 12:35:02;;;;;;;;;;;19.60;99.90;;;;;;7334831;19;110023;-63
2023/05/25 12:37:29;;;;;;;;;;;19.60;99.90;;;;;;7336567;19;109515;-63
2023/05/25 12:39:56;;;;;;;;;;;19.50;99.90;;;;;;7335014;19;111043;-62
2023/05/25 12:42:26;;;;;;;;;;;19.50;99.90;;;;;;7334396;19;110140;-63
2023/05/25 12:44:56;;;;;;;;;;;19.40;99.90;;;;;;7333918;19;113036;-63
2023/05/25 12:47:26;;;;;;;;;;;19.40;99.90;;;;;;7332165;19;109863;-62
2023/05/25 12:50:12;;;;;;;;;;;19.40;99.90;;;;;;7334787;19;111254;-63
2023/05/25 12:52:43;;;;;;;;;;;19.40;99.90;;;;;;7336528;19;110109;-63
2023/05/25 12:55:26;;;;;;;;;;;19.40;99.90;;;;;;7339469;19;111235;-63
2023/05/25 12:57:54;;;;;;;;;;;19.40;99.90;;;;;;7335295;19;109777;-63
2023/05/25 13:00:23;;;;;;;;;;;19.60;99.90;;;;;;7332758;19;109649;-63
2023/05/25 13:02:50;;;;;;;;;;;19.70;99.90;;;;;;7333710;19;112591;-63
2023/05/25 13:05:18;;;;;;;;;;;19.90;99.90;;;;;;7333978;19;109460;-63
2023/05/25 13:07:45;;;;;;;;;;;20.00;99.90;;;;;;7334963;19;109405;-63
2023/05/25 13:10:14;;;;;;;;;;;20.20;99.70;;;;;;7330860;19;110120;-63
2023/05/25 13:12:42;;;;;;;;;;;20.30;99.50;;;;;;7332422;19;111136;-63
2023/05/25 13:15:09;;;;;;;;;;;20.30;99.40;;;;;;7337709;19;109670;-64
2023/05/25 13:17:36;;;;;;;;;;;20.00;99.30;;;;;;7328713;19;109395;-63
2023/05/25 13:20:04;;;;;;;;;;;20.00;99.90;;;;;;7328714;19;109777;-64
2023/05/25 13:22:31;;;;;;;;;;;20.00;99.90;;;;;;7330268;19;111305;-62
2023/05/25 13:24:58;;;;;;;;;;;20.00;98.90;;;;;;7332270;19;109287;-63
2023/05/25 13:27:25;;;;;;;;;;;20.20;99.90;;;;;;7331042;19;112522;-62
2023/05/25 13:29:53;;;;;;;;;;;20.50;99.00;;;;;;7333555;19;110666;-63
2023/05/25 13:32:19;;;;;;;;;;;20.60;98.10;;;;;;7335346;19;115347;-62
2023/05/25 13:34:47;;;;;;;;;;;20.60;97.80;;;;;;7335396;19;109559;-62
2023/05/25 13:37:14;;;;;;;;;;;20.70;98.50;;;;;;7341218;19;110045;-64
2023/05/25 13:39:41;;;;;;;;;;;20.80;98.40;;;;;;7335223;19;109834;-62
2023/05/25 13:42:08;;;;;;;;;;;20.70;98.40;;;;;;7334300;19;110143;-63
2023/05/25 13:44:35;;;;;;;;;;;20.60;98.10;;;;;;7334151;19;109913;-63
2023/05/25 13:47:03;;;;;;;;;;;20.70;98.30;;;;;;7335768;19;109612;-65
2023/05/25 13:49:30;;;;;;;;;;;20.60;98.10;;;;;;7334794;19;110242;-64
2023/05/25 13:51:57;;;;;;;;;;;20.40;98.10;;;;;;7334412;19;110141;-65
2023/05/25 13:54:24;;;;;;;;;;;20.30;98.00;;;;;;7333441;19;110015;-65
2023/05/25 13:56:51;;;;;;;;;;;20.30;98.60;;;;;;7332936;19;111105;-62
2023/05/25 13:59:18;;;;;;;;;;;20.50;98.20;;;;;;7341712;19;110346;-63
2023/05/25 14:01:46;;;;;;;;;;;20.60;98.20;;;;;;7339529;19;110861;-63
2023/05/25 14:04:16;;;;;;;;;;;20.60;97.00;;;;;;7339031;19;111524;-64
2023/05/25 14:06:43;;;;;;;;;;;20.70;98.90;;;;;;7340183;19;110147;-63
2023/05/25 14:09:11;;;;;;;;;;;21.10;98.20;;;;;;7340869;19;110880;-68
2023/05/25 14:11:39;;;;;;;;;;;21.30;96.90;;;;;;7341636;19;110595;-65